Página principal
METAR-TAF:

METAR-TAF

Aeroportos :

Nakhon Ratchasima, Tailândia

latitude: 14-56-58N, longitude: 102-18-45E, altura: 233 m

Observação actual do tempo

O boletim foi feito há 40 minutos, às 04:00 UTC
Vento 3 kt com direcção variável
Temperatura 33°C
Humidade 49%
Pressão 1015 hPa
Visibilidade: 5000 m
bruma

METAR: VTUQ 230400Z VRB03KT 5000 HZ NSC 33/21 Q1015 NOSIG

Hora: 11:40 (04:40 UTC)

Previsão

O boletim foi feito há 5 horas e 40 minutos, às 23:00 UTC
Previsão válida de 23 às 00 UTC a 23 às 24 UTC
Vento 4 kt de su-sudeste
Visibilidade: 4000 m
neblina
Tornando-se
de 23 às 02 UTC a 23 às 04 UTC
Visibilidade: 8000 m

TAF: VTUQ 222300Z 2300/2324 16004KT 4000 BR NSC BECMG 2302/2304 8000 NSW

Observações e previsões do tempo de mais de 4000 aeroportos (mensagens METAR e TAF).

As estações disponíveis são os pontos amarelos e vermelhos sobre o mapa.

Mova o rato sobre o mapa para ver o nome da estação.

Depois clique no ponto para visualizar as observações e previsões meteorológicas.

Para alterar o mapa : clique nos botões verdes com uma cruz preta para aumentar o zoom; no botão verde com uma pitada de zoom; ou nas setas verdes para mapas adjacentes.


METAR-TAF: